createdAt,value
2023-04-18T00:00:50.337Z,0.00
2023-04-18T00:01:50.469Z,0.00
2023-04-18T00:02:50.555Z,0.00
2023-04-18T00:03:50.751Z,0.00
2023-04-18T00:04:50.594Z,0.00
2023-04-18T00:05:50.299Z,0.00
2023-04-18T00:06:50.307Z,0.37
2023-04-18T00:07:50.297Z,15.30
2023-04-18T00:08:50.311Z,25.32
2023-04-18T00:09:50.293Z,25.44
2023-04-18T00:10:50.308Z,26.29
2023-04-18T00:11:50.273Z,25.00
2023-04-18T00:12:50.254Z,26.56
2023-04-18T00:13:50.250Z,26.01
2023-04-18T00:14:50.246Z,26.32
2023-04-18T00:15:50.246Z,25.00
2023-04-18T00:16:50.309Z,25.00
2023-04-18T00:17:50.403Z,25.71
2023-04-18T00:18:50.361Z,26.86
2023-04-18T00:19:50.418Z,24.93
2023-04-18T00:20:50.455Z,25.31
2023-04-18T00:21:50.521Z,25.58
2023-04-18T00:22:50.600Z,27.82
2023-04-18T00:23:50.649Z,26.71
2023-04-18T00:24:50.715Z,27.33
2023-04-18T00:25:50.772Z,25.40
2023-04-18T00:26:50.906Z,25.93
2023-04-18T00:27:50.888Z,27.29
2023-04-18T00:28:50.930Z,25.00
2023-04-18T00:29:50.993Z,25.45
2023-04-18T00:30:51.082Z,27.95
2023-04-18T00:31:51.101Z,25.58
2023-04-18T00:32:51.214Z,26.57
2023-04-18T00:33:51.219Z,25.00
2023-04-18T00:34:51.308Z,26.04
2023-04-18T00:35:51.338Z,26.08
2023-04-18T00:36:51.409Z,26.45
2023-04-18T00:37:51.479Z,26.58
2023-04-18T00:38:51.557Z,25.00
2023-04-18T00:39:51.592Z,25.93
2023-04-18T00:40:51.672Z,26.51
2023-04-18T00:41:51.706Z,27.90
2023-04-18T00:42:51.791Z,27.76
2023-04-18T00:43:51.833Z,24.85
2023-04-18T00:44:51.877Z,25.74
2023-04-18T00:45:51.996Z,27.38
2023-04-18T00:46:52.029Z,27.20
2023-04-18T00:47:52.177Z,27.41
2023-04-18T00:48:52.129Z,26.97
2023-04-18T00:49:52.190Z,27.31
2023-04-18T00:50:52.251Z,25.89
2023-04-18T00:51:52.314Z,26.83
2023-04-18T00:52:52.374Z,26.10
2023-04-18T00:53:52.438Z,27.22
2023-04-18T00:54:52.524Z,26.02
2023-04-18T00:55:52.547Z,27.26
2023-04-18T00:56:52.606Z,27.46
2023-04-18T00:57:52.659Z,26.33
2023-04-18T00:58:52.830Z,28.74
2023-04-18T00:59:52.786Z,27.05
2023-04-18T01:00:52.844Z,26.56
2023-04-18T01:01:53.099Z,28.14
2023-04-18T01:02:53.234Z,28.55
2023-04-18T01:03:53.181Z,26.62
2023-04-18T01:04:53.063Z,25.71
2023-04-18T01:05:53.087Z,26.45
2023-04-18T01:06:53.116Z,27.30
2023-04-18T01:07:53.180Z,27.22
2023-04-18T01:08:53.243Z,26.90
2023-04-18T01:09:53.315Z,26.43
2023-04-18T01:10:53.375Z,26.01
2023-04-18T01:11:53.396Z,26.89
2023-04-18T01:12:53.443Z,28.54
2023-04-18T01:13:53.495Z,27.13
2023-04-18T01:14:53.581Z,25.19
2023-04-18T01:15:53.646Z,28.20
2023-04-18T01:16:53.677Z,27.23
2023-04-18T01:17:53.789Z,28.27
2023-04-18T01:18:53.808Z,27.27
2023-04-18T01:19:53.867Z,26.65
2023-04-18T01:20:53.949Z,26.22
2023-04-18T01:21:53.996Z,28.52
2023-04-18T01:22:54.062Z,29.98
2023-04-18T01:23:54.121Z,29.15
2023-04-18T01:24:54.175Z,30.75
2023-04-18T01:25:54.242Z,28.34
2023-04-18T01:26:54.309Z,27.09
2023-04-18T01:27:54.374Z,27.90
2023-04-18T01:28:54.439Z,28.71
2023-04-18T01:29:54.516Z,25.40
2023-04-18T01:30:54.650Z,28.47
2023-04-18T01:31:54.612Z,29.45
2023-04-18T01:32:54.760Z,27.50
2023-04-18T01:33:54.737Z,27.46
2023-04-18T01:34:54.799Z,27.53
2023-04-18T01:35:54.867Z,28.18
2023-04-18T01:36:54.927Z,25.96
2023-04-18T01:37:54.978Z,26.71
2023-04-18T01:38:55.054Z,28.14
2023-04-18T01:39:55.111Z,27.03
2023-04-18T01:40:55.185Z,30.40
2023-04-18T01:41:55.269Z,28.74
2023-04-18T01:42:55.312Z,25.00
2023-04-18T01:43:55.371Z,27.05
2023-04-18T01:44:55.426Z,27.66
2023-04-18T01:45:55.496Z,28.92
2023-04-18T01:46:55.713Z,27.47
2023-04-18T01:47:55.710Z,29.00
2023-04-18T01:48:55.710Z,29.10
2023-04-18T01:49:55.746Z,26.43
2023-04-18T01:50:55.814Z,25.67
2023-04-18T01:51:55.872Z,28.31
2023-04-18T01:52:55.943Z,28.33
2023-04-18T01:53:56.004Z,26.47
2023-04-18T01:54:56.065Z,26.88
2023-04-18T01:55:56.139Z,26.92
2023-04-18T01:56:56.193Z,25.73
2023-04-18T01:57:56.254Z,26.82
2023-04-18T01:58:56.322Z,26.33
2023-04-18T01:59:56.382Z,27.35
2023-04-18T02:00:56.479Z,26.98
2023-04-18T02:01:56.556Z,29.60
2023-04-18T02:02:56.784Z,27.60
2023-04-18T02:03:56.805Z,28.95
2023-04-18T02:04:56.674Z,25.33
2023-04-18T02:05:56.734Z,27.10
2023-04-18T02:06:56.815Z,26.91
2023-04-18T02:07:56.855Z,30.17
2023-04-18T02:08:56.929Z,26.58
2023-04-18T02:09:57.007Z,29.21
2023-04-18T02:10:57.058Z,26.00
2023-04-18T02:11:57.120Z,27.18
2023-04-18T02:12:57.170Z,25.00
2023-04-18T02:13:57.238Z,27.00
2023-04-18T02:14:57.282Z,29.01
2023-04-18T02:15:57.431Z,29.85
2023-04-18T02:16:57.441Z,27.29
2023-04-18T02:17:57.455Z,27.55
2023-04-18T02:18:57.508Z,25.40
2023-04-18T02:19:57.536Z,28.84
2023-04-18T02:20:57.613Z,29.32
2023-04-18T02:21:57.670Z,27.99
2023-04-18T02:22:57.722Z,29.52
2023-04-18T02:23:57.784Z,28.35
2023-04-18T02:24:57.851Z,30.02
2023-04-18T02:25:57.906Z,28.88
2023-04-18T02:26:57.965Z,29.25
2023-04-18T02:27:58.020Z,28.07
2023-04-18T02:28:58.088Z,29.00
2023-04-18T02:29:58.158Z,27.43
2023-04-18T02:30:58.220Z,28.13
2023-04-18T02:31:58.341Z,26.15
2023-04-18T02:32:58.383Z,27.37
2023-04-18T02:33:58.390Z,29.78
2023-04-18T02:34:58.507Z,25.13
2023-04-18T02:35:58.516Z,26.05
2023-04-18T02:36:58.588Z,26.62
2023-04-18T02:37:58.636Z,29.60
2023-04-18T02:38:58.701Z,26.99
2023-04-18T02:39:58.774Z,25.28
2023-04-18T02:40:58.820Z,27.29
2023-04-18T02:41:58.899Z,27.18
2023-04-18T02:42:58.940Z,27.02
2023-04-18T02:43:59.018Z,27.86
2023-04-18T02:44:59.077Z,26.77
2023-04-18T02:45:59.153Z,25.96
2023-04-18T02:46:59.182Z,27.04
2023-04-18T02:47:59.278Z,26.97
2023-04-18T02:48:59.327Z,28.61
2023-04-18T02:49:59.376Z,30.16
2023-04-18T02:50:59.455Z,25.83
2023-04-18T02:51:59.482Z,27.20
2023-04-18T02:52:59.542Z,31.18
2023-04-18T02:53:59.598Z,30.18
2023-04-18T02:54:59.639Z,27.93
2023-04-18T02:55:59.692Z,27.12
2023-04-18T02:56:59.748Z,27.79
2023-04-18T02:57:59.809Z,27.14
2023-04-18T02:58:59.879Z,29.54
2023-04-18T02:59:59.940Z,28.69
2023-04-18T03:01:00.028Z,28.68
2023-04-18T03:02:00.207Z,26.21
2023-04-18T03:03:00.282Z,26.60
2023-04-18T03:04:00.197Z,27.56
2023-04-18T03:05:00.308Z,26.87
2023-04-18T03:06:00.325Z,26.04
2023-04-18T03:07:00.449Z,27.03
2023-04-18T03:08:00.460Z,28.27
2023-04-18T03:09:00.517Z,27.95
2023-04-18T03:10:00.567Z,27.98
2023-04-18T03:11:00.657Z,27.18
2023-04-18T03:12:00.708Z,25.38
2023-04-18T03:13:00.778Z,27.63
2023-04-18T03:14:00.844Z,27.29
2023-04-18T03:15:00.893Z,27.01
2023-04-18T03:16:01.020Z,28.88
2023-04-18T03:17:01.013Z,29.40
2023-04-18T03:18:01.151Z,29.59
2023-04-18T03:19:01.113Z,27.97
2023-04-18T03:20:01.168Z,29.16
2023-04-18T03:21:01.200Z,30.84
2023-04-18T03:22:01.248Z,27.40
2023-04-18T03:23:01.332Z,28.80
2023-04-18T03:24:01.370Z,30.27
2023-04-18T03:25:01.432Z,27.17
2023-04-18T03:26:01.484Z,26.97
2023-04-18T03:27:01.558Z,27.12
2023-04-18T03:28:01.616Z,27.64
2023-04-18T03:29:01.683Z,28.36
2023-04-18T03:30:01.781Z,28.30
2023-04-18T03:31:01.844Z,27.18
2023-04-18T03:32:01.881Z,27.66
2023-04-18T03:33:01.960Z,27.64
2023-04-18T03:34:01.987Z,28.62
2023-04-18T03:35:02.048Z,28.78
2023-04-18T03:36:02.097Z,26.32
2023-04-18T03:37:02.145Z,27.94
2023-04-18T03:38:02.216Z,28.13
2023-04-18T03:39:02.303Z,26.70
2023-04-18T03:40:02.351Z,28.88
2023-04-18T03:41:02.415Z,27.35
2023-04-18T03:42:02.475Z,26.84
2023-04-18T03:43:02.586Z,26.88
2023-04-18T03:44:02.599Z,27.32
2023-04-18T03:45:02.657Z,31.85
2023-04-18T03:46:02.757Z,28.46
2023-04-18T03:47:02.782Z,29.43
2023-04-18T03:48:02.893Z,27.44
2023-04-18T03:49:02.902Z,28.31
2023-04-18T03:50:02.978Z,28.37
2023-04-18T03:51:03.024Z,28.03
2023-04-18T03:52:03.083Z,27.28
2023-04-18T03:53:03.156Z,28.12
2023-04-18T03:54:03.217Z,28.09
2023-04-18T03:55:03.324Z,28.13
2023-04-18T03:56:03.356Z,27.49
2023-04-18T03:57:03.405Z,28.94
2023-04-18T03:58:03.454Z,26.56
2023-04-18T03:59:03.516Z,27.02
2023-04-18T04:00:03.567Z,28.37
2023-04-18T04:01:03.628Z,29.09
2023-04-18T04:02:03.824Z,28.81
2023-04-18T04:03:04.014Z,28.96
2023-04-18T04:04:03.858Z,28.19
2023-04-18T04:05:03.919Z,29.48
2023-04-18T04:06:03.921Z,29.92
2023-04-18T04:07:03.993Z,29.38
2023-04-18T04:08:04.053Z,29.16
2023-04-18T04:09:04.117Z,29.34
2023-04-18T04:10:04.184Z,29.67
2023-04-18T04:11:04.242Z,30.20
2023-04-18T04:12:04.268Z,29.58
2023-04-18T04:13:04.309Z,28.15
2023-04-18T04:14:04.369Z,27.21
2023-04-18T04:15:04.402Z,30.22
2023-04-18T04:16:04.464Z,30.67
2023-04-18T04:17:04.522Z,30.57
2023-04-18T04:18:04.609Z,28.81
2023-04-18T04:19:04.651Z,27.26
2023-04-18T04:20:04.709Z,29.36
2023-04-18T04:21:04.774Z,29.73
2023-04-18T04:22:04.833Z,27.38
2023-04-18T04:23:04.887Z,29.96
2023-04-18T04:24:04.945Z,27.97
2023-04-18T04:25:04.999Z,28.41
2023-04-18T04:26:05.060Z,26.69
2023-04-18T04:27:05.140Z,29.58
2023-04-18T04:28:05.165Z,28.94
2023-04-18T04:29:05.214Z,29.40
2023-04-18T04:30:05.276Z,27.42
2023-04-18T04:31:05.336Z,27.47
2023-04-18T04:32:05.522Z,27.70
2023-04-18T04:33:05.490Z,28.41
2023-04-18T04:34:05.519Z,28.34
2023-04-18T04:35:05.587Z,29.73
2023-04-18T04:36:05.652Z,25.89
2023-04-18T04:37:05.702Z,28.25
2023-04-18T04:38:05.765Z,29.64
2023-04-18T04:39:05.839Z,27.11
2023-04-18T04:40:05.885Z,27.78
2023-04-18T04:41:05.933Z,28.89
2023-04-18T04:42:05.988Z,27.65
2023-04-18T04:43:06.171Z,25.83
2023-04-18T04:44:06.089Z,27.24
2023-04-18T04:45:06.146Z,27.27
2023-04-18T04:46:06.218Z,27.96
2023-04-18T04:47:06.249Z,27.85
2023-04-18T04:48:06.343Z,28.09
2023-04-18T04:49:06.338Z,26.74
2023-04-18T04:50:06.407Z,29.79
2023-04-18T04:51:06.453Z,27.14
2023-04-18T04:52:06.490Z,28.45
2023-04-18T04:53:06.540Z,28.44
2023-04-18T04:54:06.615Z,27.71
2023-04-18T04:55:06.660Z,27.90
2023-04-18T04:56:06.717Z,29.81
2023-04-18T04:57:06.811Z,29.01
2023-04-18T04:58:06.855Z,27.21
2023-04-18T04:59:06.941Z,27.83
2023-04-18T05:00:06.964Z,29.72
2023-04-18T05:01:07.058Z,29.03
2023-04-18T05:02:07.198Z,28.29
2023-04-18T05:03:07.303Z,28.77
2023-04-18T05:04:07.330Z,27.61
2023-04-18T05:05:07.218Z,25.89
2023-04-18T05:06:07.263Z,27.56
2023-04-18T05:07:07.307Z,27.86
2023-04-18T05:08:07.355Z,28.65
2023-04-18T05:09:07.400Z,29.04
2023-04-18T05:10:07.463Z,27.71
2023-04-18T05:11:07.494Z,28.34
2023-04-18T05:12:07.692Z,28.62
2023-04-18T05:13:07.621Z,28.46
2023-04-18T05:14:07.648Z,30.12
2023-04-18T05:15:07.722Z,29.14
2023-04-18T05:16:07.766Z,27.82
2023-04-18T05:17:07.919Z,26.12
2023-04-18T05:18:08.251Z,28.16
2023-04-18T05:19:07.949Z,29.56
2023-04-18T05:20:07.991Z,29.38
2023-04-18T05:21:08.047Z,28.94
2023-04-18T05:22:08.113Z,26.98
2023-04-18T05:23:08.165Z,28.43
2023-04-18T05:24:08.232Z,31.48
2023-04-18T05:25:08.302Z,29.86
2023-04-18T05:26:08.701Z,29.92
2023-04-18T05:27:08.436Z,30.95
2023-04-18T05:28:08.571Z,30.49
2023-04-18T05:29:08.550Z,29.59
2023-04-18T05:30:08.616Z,31.51
2023-04-18T05:31:08.718Z,30.36
2023-04-18T05:32:08.740Z,31.73
2023-04-18T05:33:08.841Z,30.76
2023-04-18T05:34:08.851Z,29.50
2023-04-18T05:35:08.918Z,33.06
2023-04-18T05:36:08.980Z,35.19
2023-04-18T05:37:09.042Z,35.67
2023-04-18T05:38:09.212Z,38.01
2023-04-18T05:39:09.170Z,39.92
2023-04-18T05:40:09.708Z,40.95
2023-04-18T05:41:09.296Z,42.38
2023-04-18T05:42:09.348Z,46.44
2023-04-18T05:43:09.426Z,45.43
2023-04-18T05:44:09.724Z,47.40
2023-04-18T05:45:09.555Z,49.12
2023-04-18T05:46:09.655Z,49.09
2023-04-18T05:47:09.682Z,50.61
2023-04-18T05:48:10.271Z,51.28
2023-04-18T05:49:10.221Z,53.39
2023-04-18T05:50:10.213Z,51.45
2023-04-18T05:51:11.643Z,53.41
2023-04-18T05:52:09.898Z,57.52
2023-04-18T05:53:09.884Z,63.06
2023-04-18T05:54:10.212Z,59.80
2023-04-18T05:55:09.896Z,66.30
2023-04-18T05:56:09.951Z,72.19
2023-04-18T05:57:09.940Z,75.00
2023-04-18T05:58:10.241Z,79.34
2023-04-18T05:59:09.855Z,101.36
2023-04-18T06:00:10.263Z,101.05
2023-04-18T06:01:09.839Z,87.61
2023-04-18T06:02:09.895Z,62.73
2023-04-18T06:03:11.335Z,42.41
2023-04-18T06:04:09.890Z,57.80
2023-04-18T06:05:10.185Z,66.11
2023-04-18T06:06:09.813Z,85.61
2023-04-18T06:07:09.840Z,79.11
2023-04-18T06:08:10.210Z,83.60
2023-04-18T06:09:09.796Z,89.80
2023-04-18T06:10:10.215Z,88.38
2023-04-18T06:11:09.774Z,90.27
2023-04-18T06:12:09.780Z,86.85
2023-04-18T06:13:10.860Z,82.59
2023-04-18T06:14:10.189Z,83.84
2023-04-18T06:15:10.750Z,79.82
2023-04-18T06:16:10.416Z,80.08
2023-04-18T06:17:10.366Z,82.86
2023-04-18T06:18:10.064Z,77.48
2023-04-18T06:19:10.316Z,80.43
2023-04-18T06:20:10.158Z,79.70
2023-04-18T06:21:10.218Z,80.12
2023-04-18T06:22:10.229Z,79.83
2023-04-18T06:23:10.280Z,80.06
2023-04-18T06:24:10.226Z,79.18
2023-04-18T06:25:10.400Z,78.97
2023-04-18T06:26:10.034Z,77.64
2023-04-18T06:27:20.451Z,77.88
2023-04-18T06:28:09.956Z,78.27
2023-04-18T06:29:10.081Z,79.53
2023-04-18T06:30:10.017Z,80.16
2023-04-18T06:31:10.070Z,81.24
2023-04-18T06:32:10.322Z,81.00
2023-04-18T06:33:10.113Z,81.28
2023-04-18T06:34:10.162Z,79.14
2023-04-18T06:35:09.757Z,79.07
2023-04-18T06:36:09.686Z,80.91
2023-04-18T06:37:09.702Z,78.97
2023-04-18T06:38:09.757Z,78.91
2023-04-18T06:39:09.657Z,80.96
2023-04-18T06:40:09.659Z,80.71
2023-04-18T06:41:09.649Z,80.42
2023-04-18T06:42:09.629Z,84.83
2023-04-18T06:43:09.725Z,88.42
2023-04-18T06:44:09.624Z,84.51
2023-04-18T06:45:09.614Z,85.12
2023-04-18T06:46:09.659Z,84.61
2023-04-18T06:47:09.737Z,85.49
2023-04-18T06:48:10.916Z,85.69
2023-04-18T06:49:09.858Z,88.00
2023-04-18T06:50:10.235Z,83.83
2023-04-18T06:51:10.285Z,82.35
2023-04-18T06:52:10.234Z,83.66
2023-04-18T06:53:10.081Z,81.70
2023-04-18T06:54:10.137Z,83.20
2023-04-18T06:55:10.236Z,82.40
2023-04-18T06:56:10.270Z,82.24
2023-04-18T06:57:10.338Z,82.42
2023-04-18T06:58:10.404Z,82.84
2023-04-18T06:59:10.772Z,80.45
2023-04-18T07:00:10.728Z,80.36
2023-04-18T07:01:10.737Z,79.59
2023-04-18T07:02:10.689Z,78.48
2023-04-18T07:03:11.261Z,80.50
2023-04-18T07:04:11.496Z,80.94
2023-04-18T07:05:10.821Z,79.51
2023-04-18T07:06:10.945Z,79.07
2023-04-18T07:07:11.074Z,78.81
2023-04-18T07:08:11.016Z,77.65
2023-04-18T07:09:11.229Z,78.98
2023-04-18T07:10:11.136Z,77.81
2023-04-18T07:11:11.196Z,76.19
2023-04-18T07:12:11.258Z,77.15
2023-04-18T07:13:11.320Z,78.43
2023-04-18T07:14:11.929Z,79.16
2023-04-18T07:15:11.446Z,77.18
2023-04-18T07:16:11.507Z,75.70
2023-04-18T07:17:11.657Z,76.27
2023-04-18T07:18:11.895Z,76.48
2023-04-18T07:19:12.238Z,77.32
2023-04-18T07:20:14.176Z,74.50
2023-04-18T07:21:11.897Z,77.84
2023-04-18T07:22:11.935Z,76.64
2023-04-18T07:23:12.036Z,77.55
2023-04-18T07:24:12.504Z,75.76
2023-04-18T07:25:11.893Z,77.73
2023-04-18T07:26:11.905Z,73.65
2023-04-18T07:27:11.864Z,75.79
2023-04-18T07:28:12.274Z,73.26
2023-04-18T07:29:12.261Z,74.88
2023-04-18T07:30:11.835Z,75.64
2023-04-18T07:31:11.930Z,73.77
2023-04-18T07:32:11.832Z,73.52
2023-04-18T07:33:12.253Z,73.98
2023-04-18T07:34:12.374Z,74.42
2023-04-18T07:35:11.923Z,73.74
2023-04-18T07:36:11.987Z,73.33
2023-04-18T07:38:11.100Z,77.41
2023-04-18T07:39:12.270Z,79.19
2023-04-18T07:40:12.234Z,90.92
2023-04-18T07:41:12.302Z,96.14
2023-04-18T07:42:12.444Z,99.69
2023-04-18T07:43:12.373Z,105.87
2023-04-18T07:44:13.009Z,109.44
2023-04-18T07:45:12.463Z,112.22
2023-04-18T07:46:12.555Z,118.25
2023-04-18T07:47:12.534Z,124.35
2023-04-18T07:48:12.605Z,128.11
2023-04-18T07:49:13.174Z,132.23
2023-04-18T07:50:12.648Z,137.79
2023-04-18T07:51:12.757Z,143.13
2023-04-18T07:52:12.666Z,148.43
2023-04-18T07:53:12.695Z,152.66
2023-04-18T07:54:12.766Z,158.40
2023-04-18T07:55:12.854Z,161.85
2023-04-18T07:56:12.753Z,165.08
2023-04-18T07:57:12.767Z,167.79
2023-04-18T07:58:12.773Z,172.13
2023-04-18T07:59:13.012Z,178.96
2023-04-18T08:00:13.320Z,181.40
2023-04-18T08:01:13.277Z,190.01
2023-04-18T08:02:12.858Z,191.98
2023-04-18T08:03:13.427Z,194.49
2023-04-18T08:04:12.888Z,200.25
2023-04-18T08:06:11.834Z,212.91
2023-04-18T08:07:12.832Z,218.13
2023-04-18T08:08:12.831Z,223.65
2023-04-18T08:09:13.595Z,228.32
2023-04-18T08:10:12.843Z,232.04
2023-04-18T08:11:12.969Z,235.03
2023-04-18T08:12:12.858Z,239.10
2023-04-18T08:13:12.856Z,244.18
2023-04-18T08:14:13.258Z,249.30
2023-04-18T08:15:13.270Z,248.61
2023-04-18T08:16:14.259Z,249.56
2023-04-18T08:17:12.893Z,249.85
2023-04-18T08:18:12.899Z,250.82
2023-04-18T08:19:13.383Z,254.63
2023-04-18T08:20:12.893Z,260.03
2023-04-18T08:21:12.885Z,269.87
2023-04-18T08:22:12.859Z,250.00
2023-04-18T08:23:13.560Z,249.65
2023-04-18T08:24:12.867Z,249.19
2023-04-18T08:25:12.828Z,249.76
2023-04-18T08:26:13.299Z,249.64
2023-04-18T08:27:13.006Z,250.00
2023-04-18T08:28:12.888Z,248.83
2023-04-18T08:29:13.492Z,249.05
2023-04-18T08:30:12.793Z,248.71
2023-04-18T08:31:12.802Z,250.00
2023-04-18T08:32:12.871Z,250.00
2023-04-18T08:33:12.777Z,249.94
2023-04-18T08:34:12.771Z,250.00
2023-04-18T08:35:12.768Z,249.76
2023-04-18T08:36:12.769Z,248.99
2023-04-18T08:37:12.763Z,249.90
2023-04-18T08:38:12.747Z,249.98
2023-04-18T08:39:12.988Z,250.00
2023-04-18T08:40:12.768Z,249.50
2023-04-18T08:41:12.733Z,248.70
2023-04-18T08:42:12.719Z,249.36
2023-04-18T08:43:12.773Z,249.47
2023-04-18T08:44:12.926Z,247.41
2023-04-18T08:45:12.861Z,249.39
2023-04-18T08:46:12.763Z,248.31
2023-04-18T08:47:12.687Z,249.08
2023-04-18T08:48:12.685Z,249.07
2023-04-18T08:49:12.973Z,250.00
2023-04-18T08:50:12.781Z,250.00
2023-04-18T08:51:12.672Z,248.93
2023-04-18T08:52:12.696Z,249.84
2023-04-18T08:53:12.695Z,249.49
2023-04-18T08:54:12.795Z,250.00
2023-04-18T08:55:12.630Z,250.00
2023-04-18T08:56:12.657Z,249.36
2023-04-18T08:57:12.755Z,250.00
2023-04-18T08:58:12.784Z,250.00
2023-04-18T08:59:13.501Z,248.19
2023-04-18T09:00:12.877Z,249.32
2023-04-18T09:01:12.928Z,249.29
2023-04-18T09:02:12.990Z,248.35
2023-04-18T09:03:13.315Z,249.09
2023-04-18T09:04:13.075Z,248.36
2023-04-18T09:05:13.078Z,249.03
2023-04-18T09:06:13.157Z,250.00
2023-04-18T09:07:13.190Z,247.83
2023-04-18T09:08:13.273Z,248.30
2023-04-18T09:09:13.594Z,248.81
2023-04-18T09:10:13.370Z,248.81
2023-04-18T09:11:13.436Z,249.28
2023-04-18T09:12:13.520Z,250.35
2023-04-18T09:13:13.781Z,250.00
2023-04-18T09:14:13.824Z,249.46
2023-04-18T09:15:13.846Z,250.00
2023-04-18T09:16:13.790Z,249.66
2023-04-18T09:17:13.860Z,249.29
2023-04-18T09:18:14.320Z,247.46
2023-04-18T09:19:14.288Z,246.61
2023-04-18T09:20:13.924Z,173.53
2023-04-18T09:21:14.279Z,95.71
2023-04-18T09:22:14.017Z,74.62
2023-04-18T09:23:14.057Z,86.34
2023-04-18T09:24:14.373Z,103.93
2023-04-18T09:25:14.295Z,117.87
2023-04-18T09:26:14.260Z,119.93
2023-04-18T09:27:14.290Z,124.22
2023-04-18T09:28:14.786Z,137.75
2023-04-18T09:29:14.529Z,154.34
2023-04-18T09:30:14.464Z,161.46
2023-04-18T09:31:14.733Z,153.06
2023-04-18T09:32:14.796Z,145.02
2023-04-18T09:33:15.775Z,148.22
2023-04-18T09:34:15.741Z,147.87
2023-04-18T09:35:14.727Z,147.84
2023-04-18T09:36:14.789Z,152.84
2023-04-18T09:37:14.840Z,185.46
2023-04-18T09:38:14.833Z,177.43
2023-04-18T09:39:14.923Z,170.42
2023-04-18T09:40:15.293Z,166.72
2023-04-18T09:41:15.291Z,164.48
2023-04-18T09:42:15.009Z,160.90
2023-04-18T09:43:15.077Z,158.55
2023-04-18T09:44:15.718Z,119.33
2023-04-18T09:45:15.171Z,89.93
2023-04-18T09:46:15.303Z,57.03
2023-04-18T09:47:15.629Z,27.09
2023-04-18T09:48:15.352Z,24.71
2023-04-18T09:49:16.732Z,21.31
2023-04-18T09:50:15.626Z,17.04
2023-04-18T09:51:15.796Z,27.93
2023-04-18T09:52:15.795Z,32.14
2023-04-18T09:53:15.628Z,42.34
2023-04-18T09:54:15.803Z,29.20
2023-04-18T09:55:15.794Z,27.73
2023-04-18T09:56:15.637Z,25.00
2023-04-18T09:57:15.653Z,24.99
2023-04-18T09:58:15.658Z,29.39
2023-04-18T09:59:15.846Z,32.62
2023-04-18T10:00:15.839Z,34.17
2023-04-18T10:01:15.736Z,29.03
2023-04-18T10:02:15.735Z,25.10
2023-04-18T10:03:15.975Z,25.48
2023-04-18T10:04:16.034Z,25.00
2023-04-18T10:05:15.819Z,27.79
2023-04-18T10:06:15.799Z,31.01
2023-04-18T10:07:15.924Z,31.39
2023-04-18T10:08:15.843Z,35.01
2023-04-18T10:09:16.210Z,25.58
2023-04-18T10:10:16.310Z,24.97
2023-04-18T10:11:23.308Z,25.18
2023-04-18T10:12:15.891Z,25.27
2023-04-18T10:13:15.871Z,25.54
2023-04-18T10:14:17.056Z,26.59
2023-04-18T10:15:15.884Z,21.35
2023-04-18T10:16:15.901Z,20.67
2023-04-18T10:17:16.100Z,30.79
2023-04-18T10:18:16.359Z,29.61
2023-04-18T10:19:16.417Z,26.87
2023-04-18T10:20:16.002Z,23.37
2023-04-18T10:21:16.030Z,25.33
2023-04-18T10:22:16.102Z,28.16
2023-04-18T10:23:16.826Z,25.24
2023-04-18T10:24:17.095Z,25.62
2023-04-18T10:25:16.332Z,32.09
2023-04-18T10:26:16.351Z,27.81
2023-04-18T10:27:16.290Z,25.12
2023-04-18T10:28:16.173Z,27.16
2023-04-18T10:29:16.298Z,25.70
2023-04-18T10:30:16.280Z,31.70
2023-04-18T10:31:16.882Z,38.54
2023-04-18T10:32:16.409Z,56.96
2023-04-18T10:33:27.992Z,68.34
2023-04-18T10:34:16.837Z,68.59
2023-04-18T10:35:16.464Z,70.96
2023-04-18T10:36:16.460Z,78.76
2023-04-18T10:37:16.809Z,92.59
2023-04-18T10:38:16.465Z,112.23
2023-04-18T10:39:16.398Z,118.87
2023-04-18T10:40:16.401Z,123.15
2023-04-18T10:41:16.832Z,126.53
2023-04-18T10:42:16.895Z,128.54
2023-04-18T10:43:16.378Z,132.24
2023-04-18T10:44:16.739Z,136.58
2023-04-18T10:45:16.361Z,140.01
2023-04-18T10:46:28.333Z,144.58
2023-04-18T10:47:17.374Z,144.81
2023-04-18T10:48:16.848Z,144.97
2023-04-18T10:49:16.354Z,146.55
2023-04-18T10:50:16.473Z,150.02
2023-04-18T10:51:16.938Z,156.25
2023-04-18T10:52:16.309Z,164.87
2023-04-18T10:53:16.341Z,169.79
2023-04-18T10:54:16.482Z,173.01
2023-04-18T10:55:16.300Z,175.28
2023-04-18T10:56:16.316Z,178.87
2023-04-18T10:57:16.276Z,182.30
2023-04-18T10:58:16.319Z,185.12
2023-04-18T10:59:16.837Z,188.20
2023-04-18T11:00:16.256Z,190.85
2023-04-18T11:01:16.518Z,194.70
2023-04-18T11:02:16.271Z,197.08
2023-04-18T11:03:16.392Z,199.08
2023-04-18T11:04:16.583Z,202.92
2023-04-18T11:05:16.226Z,206.59
2023-04-18T11:06:16.332Z,208.86
2023-04-18T11:07:16.264Z,211.86
2023-04-18T11:08:16.655Z,216.68
2023-04-18T11:09:16.217Z,220.10
2023-04-18T11:10:16.357Z,221.35
2023-04-18T11:11:16.322Z,223.05
2023-04-18T11:12:16.263Z,226.44
2023-04-18T11:13:16.280Z,229.05
2023-04-18T11:14:16.554Z,232.10
2023-04-18T11:15:16.418Z,236.83
2023-04-18T11:16:16.861Z,238.24
2023-04-18T11:17:16.423Z,235.44
2023-04-18T11:18:16.433Z,231.35
2023-04-18T11:19:16.433Z,226.77
2023-04-18T11:20:16.825Z,217.84
2023-04-18T11:21:16.455Z,225.99
2023-04-18T11:22:16.474Z,219.54
2023-04-18T11:23:16.705Z,217.41
2023-04-18T11:24:16.504Z,218.60
2023-04-18T11:25:16.568Z,204.14
2023-04-18T11:26:16.561Z,182.62
2023-04-18T11:27:16.824Z,178.43
2023-04-18T11:28:16.627Z,179.06
2023-04-18T11:29:17.667Z,182.80
2023-04-18T11:30:16.696Z,190.58
2023-04-18T11:31:16.727Z,180.35
2023-04-18T11:32:16.909Z,183.34
2023-04-18T11:33:16.954Z,182.44
2023-04-18T11:34:16.843Z,185.39
2023-04-18T11:35:16.889Z,187.27
2023-04-18T11:36:16.888Z,190.07
2023-04-18T11:37:16.917Z,192.16
2023-04-18T11:38:17.348Z,195.93
2023-04-18T11:39:17.083Z,199.43
2023-04-18T11:40:16.974Z,202.40
2023-04-18T11:41:16.972Z,204.96
2023-04-18T11:42:17.045Z,208.44
2023-04-18T11:43:17.330Z,210.99
2023-04-18T11:44:16.965Z,214.14
2023-04-18T11:45:16.962Z,217.79
2023-04-18T11:46:17.038Z,219.57
2023-04-18T11:47:17.400Z,218.92
2023-04-18T11:48:16.981Z,219.36
2023-04-18T11:49:17.050Z,219.88
2023-04-18T11:50:17.077Z,220.14
2023-04-18T11:51:16.994Z,220.14
2023-04-18T11:52:16.996Z,220.67
2023-04-18T11:53:16.988Z,221.25
2023-04-18T11:54:16.993Z,221.11
2023-04-18T11:55:17.059Z,220.78
2023-04-18T11:56:17.016Z,221.52
2023-04-18T11:57:17.333Z,220.91
2023-04-18T11:58:17.029Z,221.08
2023-04-18T11:59:17.021Z,221.70
2023-04-18T12:00:17.040Z,221.78
2023-04-18T12:01:17.062Z,221.82
2023-04-18T12:02:17.415Z,221.69
2023-04-18T12:03:17.220Z,222.12
2023-04-18T12:05:16.367Z,222.57
2023-04-18T12:06:17.249Z,223.08
2023-04-18T12:07:17.341Z,222.57
2023-04-18T12:08:17.212Z,222.20
2023-04-18T12:09:17.205Z,222.80
2023-04-18T12:10:17.207Z,222.72
2023-04-18T12:11:17.240Z,223.18
2023-04-18T12:12:17.345Z,222.13
2023-04-18T12:13:17.277Z,222.21
2023-04-18T12:14:24.712Z,220.21
2023-04-18T12:15:17.288Z,220.34
2023-04-18T12:16:17.308Z,220.74
2023-04-18T12:17:17.346Z,220.94
2023-04-18T12:18:17.374Z,220.47
2023-04-18T12:19:17.263Z,219.54
2023-04-18T12:20:17.262Z,219.43
2023-04-18T12:21:17.247Z,219.14
2023-04-18T12:22:17.844Z,218.00
2023-04-18T12:23:17.343Z,219.10
2023-04-18T12:24:17.353Z,218.12
2023-04-18T12:25:17.219Z,217.73
2023-04-18T12:26:17.207Z,217.50
2023-04-18T12:27:17.374Z,217.95
2023-04-18T12:28:17.190Z,217.02
2023-04-18T12:29:17.182Z,217.17
2023-04-18T12:30:17.186Z,217.19
2023-04-18T12:31:17.217Z,217.28
2023-04-18T12:32:17.352Z,218.14
2023-04-18T12:33:17.349Z,217.66
2023-04-18T12:34:17.150Z,217.13
2023-04-18T12:35:17.277Z,217.54
2023-04-18T12:36:20.341Z,216.46
2023-04-18T12:37:17.346Z,216.57
2023-04-18T12:38:18.399Z,216.84
2023-04-18T12:39:17.111Z,217.30
2023-04-18T12:40:17.111Z,217.25
2023-04-18T12:41:17.106Z,217.04
2023-04-18T12:42:17.359Z,217.15
2023-04-18T12:43:17.130Z,217.38
2023-04-18T12:44:17.085Z,217.09
2023-04-18T12:45:17.072Z,217.05
2023-04-18T12:46:17.109Z,216.18
2023-04-18T12:47:17.415Z,215.89
2023-04-18T12:48:17.356Z,216.02